Time;durP1;ratioP1;P1;durP2;ratioP2;P2;SDS_P1;SDS_P2;PMS_P1;PMS_P2;Temp;Humidity;BMP_temperature;BMP_pressure;BME280_temperature;BME280_humidity;BME280_pressure;Samples;Min_cycle;Max_cycle;Signal;HPM_P1;HPM_P2
2022/03/25 00:01:52;;;;;;;;;;;21.50;25.20;;;;;;469312;253;1117;-56
2022/03/25 00:03:53;;;;;;;;;;;21.40;25.30;;;;;;469273;253;2295;-56
2022/03/25 00:05:54;;;;;;;;;;;21.30;25.30;;;;;;469663;253;1059;-56
2022/03/25 00:07:56;;;;;;;;;;;21.20;25.30;;;;;;469424;253;1118;-56
2022/03/25 00:09:57;;;;;;;;;;;21.30;25.30;;;;;;469403;253;1081;-56
2022/03/25 00:11:58;;;;;;;;;;;21.30;25.30;;;;;;469134;254;1193;-56
2022/03/25 00:13:59;;;;;;;;;;;21.30;25.30;;;;;;469446;253;2128;-56
2022/03/25 00:16:00;;;;;;;;;;;21.20;25.30;;;;;;469599;253;1402;-56
2022/03/25 00:18:02;;;;;;;;;;;21.20;25.30;;;;;;469336;253;1993;-56
2022/03/25 00:20:03;;;;;;;;;;;21.10;25.40;;;;;;469388;253;1026;-57
2022/03/25 00:22:04;;;;;;;;;;;21.20;25.30;;;;;;469455;253;1085;-56
2022/03/25 00:24:06;;;;;;;;;;;21.50;25.20;;;;;;469475;253;962;-56
2022/03/25 00:26:07;;;;;;;;;;;21.70;25.00;;;;;;469452;253;1343;-57
2022/03/25 00:28:09;;;;;;;;;;;21.80;24.90;;;;;;469447;253;1062;-57
2022/03/25 00:30:10;;;;;;;;;;;22.00;24.80;;;;;;469342;253;961;-57
2022/03/25 00:32:11;;;;;;;;;;;22.10;24.70;;;;;;469278;253;1020;-56
2022/03/25 00:34:12;;;;;;;;;;;22.20;24.60;;;;;;469231;253;2133;-56
2022/03/25 00:36:14;;;;;;;;;;;22.30;24.50;;;;;;469236;253;1025;-57
2022/03/25 00:38:16;;;;;;;;;;;22.40;24.50;;;;;;469265;253;993;-56
2022/03/25 00:40:16;;;;;;;;;;;22.40;24.40;;;;;;469446;253;1145;-57
2022/03/25 00:42:18;;;;;;;;;;;22.50;24.30;;;;;;469156;253;1187;-56
2022/03/25 00:44:19;;;;;;;;;;;22.60;24.20;;;;;;469616;253;1074;-56
2022/03/25 00:46:21;;;;;;;;;;;22.60;24.30;;;;;;469505;253;1072;-56
2022/03/25 00:48:22;;;;;;;;;;;22.50;24.30;;;;;;469240;253;1486;-57
2022/03/25 00:50:23;;;;;;;;;;;22.50;24.30;;;;;;469228;253;1037;-56
2022/03/25 00:52:24;;;;;;;;;;;22.50;24.40;;;;;;469330;253;1102;-57
2022/03/25 00:54:27;;;;;;;;;;;22.50;24.40;;;;;;469257;253;2198;-57
2022/03/25 00:56:27;;;;;;;;;;;22.40;24.50;;;;;;469141;253;1769;-56
2022/03/25 00:58:29;;;;;;;;;;;22.30;24.60;;;;;;469250;253;971;-57
2022/03/25 01:00:30;;;;;;;;;;;22.20;24.60;;;;;;469237;253;1069;-57
2022/03/25 01:02:31;;;;;;;;;;;22.10;24.60;;;;;;469563;253;1076;-56
2022/03/25 01:04:32;;;;;;;;;;;22.20;24.60;;;;;;469154;254;999;-56
2022/03/25 01:06:34;;;;;;;;;;;22.10;24.60;;;;;;469514;253;1053;-57
2022/03/25 01:08:36;;;;;;;;;;;22.10;24.70;;;;;;469210;253;980;-56
2022/03/25 01:10:37;;;;;;;;;;;22.00;24.70;;;;;;469276;253;1072;-56
2022/03/25 01:12:38;;;;;;;;;;;22.00;24.80;;;;;;469231;253;1241;-56
2022/03/25 01:14:39;;;;;;;;;;;22.00;24.80;;;;;;469201;253;2117;-57
2022/03/25 01:16:41;;;;;;;;;;;22.00;24.80;;;;;;469185;253;1091;-57
2022/03/25 01:18:42;;;;;;;;;;;22.00;24.80;;;;;;469097;254;1050;-57
2022/03/25 01:20:45;;;;;;;;;;;21.90;24.80;;;;;;469227;253;1250;-56
2022/03/25 01:22:45;;;;;;;;;;;22.00;24.80;;;;;;469413;253;1468;-56
2022/03/25 01:24:46;;;;;;;;;;;22.00;24.90;;;;;;469567;253;1041;-56
2022/03/25 01:26:47;;;;;;;;;;;22.00;24.80;;;;;;469202;253;1210;-56
2022/03/25 01:28:49;;;;;;;;;;;22.10;24.70;;;;;;469523;253;1043;-56
2022/03/25 01:30:50;;;;;;;;;;;22.10;24.80;;;;;;469215;253;1078;-56
2022/03/25 01:32:51;;;;;;;;;;;22.00;24.70;;;;;;469521;253;1043;-57
2022/03/25 01:34:53;;;;;;;;;;;22.10;24.70;;;;;;469562;253;2129;-57
2022/03/25 01:36:54;;;;;;;;;;;22.10;24.70;;;;;;469198;253;1067;-57
2022/03/25 01:38:55;;;;;;;;;;;22.00;24.70;;;;;;469240;253;1124;-56
2022/03/25 01:40:57;;;;;;;;;;;22.00;24.80;;;;;;469339;253;1031;-57
2022/03/25 01:42:58;;;;;;;;;;;22.10;24.80;;;;;;469222;253;1112;-57
2022/03/25 01:44:59;;;;;;;;;;;22.00;24.80;;;;;;469491;254;1005;-56
2022/03/25 01:47:01;;;;;;;;;;;22.00;24.80;;;;;;469443;253;1113;-56
2022/03/25 01:49:02;;;;;;;;;;;22.00;24.90;;;;;;469587;253;1058;-57
2022/03/25 01:51:03;;;;;;;;;;;22.00;24.90;;;;;;469638;253;1074;-56
2022/03/25 01:53:05;;;;;;;;;;;21.90;24.90;;;;;;469466;253;1091;-56
2022/03/25 01:55:06;;;;;;;;;;;21.80;24.90;;;;;;469628;253;2203;-56
2022/03/25 01:57:08;;;;;;;;;;;21.90;24.90;;;;;;469284;253;1177;-57
2022/03/25 01:59:09;;;;;;;;;;;21.80;24.90;;;;;;469193;253;1432;-56
2022/03/25 02:01:10;;;;;;;;;;;21.90;24.90;;;;;;469430;253;1065;-56
2022/03/25 02:03:11;;;;;;;;;;;22.00;24.90;;;;;;469522;253;1122;-56
2022/03/25 02:05:13;;;;;;;;;;;22.00;24.90;;;;;;469624;253;1044;-57
2022/03/25 02:07:14;;;;;;;;;;;22.00;24.80;;;;;;469577;253;1380;-57
2022/03/25 02:09:15;;;;;;;;;;;22.00;24.80;;;;;;469336;253;1081;-56
2022/03/25 02:11:19;;;;;;;;;;;22.10;24.90;;;;;;469410;253;1185;-56
2022/03/25 02:13:18;;;;;;;;;;;22.10;24.70;;;;;;469253;253;2199;-56
2022/03/25 02:15:19;;;;;;;;;;;22.10;24.80;;;;;;469250;253;1228;-56
2022/03/25 02:17:21;;;;;;;;;;;22.10;24.90;;;;;;469231;253;1038;-56
2022/03/25 02:19:25;;;;;;;;;;;22.10;24.80;;;;;;469672;253;1076;-56
2022/03/25 02:21:23;;;;;;;;;;;22.10;24.80;;;;;;469238;253;2411;-56
2022/03/25 02:23:25;;;;;;;;;;;22.10;24.90;;;;;;469403;254;1061;-56
2022/03/25 02:25:27;;;;;;;;;;;22.10;24.90;;;;;;469529;253;1110;-57
2022/03/25 02:27:28;;;;;;;;;;;22.10;24.90;;;;;;469258;253;1155;-56
2022/03/25 02:29:32;;;;;;;;;;;22.00;24.90;;;;;;469338;253;1187;-56
2022/03/25 02:31:31;;;;;;;;;;;22.00;24.90;;;;;;469234;253;1832;-56
2022/03/25 02:33:32;;;;;;;;;;;22.00;24.90;;;;;;469238;253;2215;-56
2022/03/25 02:35:34;;;;;;;;;;;22.00;24.90;;;;;;469561;253;1073;-57
2022/03/25 02:37:35;;;;;;;;;;;22.00;24.90;;;;;;469202;253;1975;-56
2022/03/25 02:39:36;;;;;;;;;;;22.00;24.90;;;;;;469643;253;1066;-56
2022/03/25 02:41:37;;;;;;;;;;;22.00;24.90;;;;;;469208;253;1074;-56
2022/03/25 02:43:39;;;;;;;;;;;22.00;24.90;;;;;;469225;253;1159;-56
2022/03/25 02:45:40;;;;;;;;;;;22.10;24.90;;;;;;469209;253;1088;-56
2022/03/25 02:47:41;;;;;;;;;;;21.80;25.00;;;;;;469491;253;1096;-56
2022/03/25 02:49:43;;;;;;;;;;;22.00;24.90;;;;;;469520;253;1068;-56
2022/03/25 02:51:44;;;;;;;;;;;21.90;24.90;;;;;;469320;253;1060;-56
2022/03/25 02:53:45;;;;;;;;;;;21.90;25.00;;;;;;469608;253;2195;-56
2022/03/25 02:55:47;;;;;;;;;;;21.80;25.10;;;;;;469381;253;1123;-56
2022/03/25 02:57:48;;;;;;;;;;;21.80;25.10;;;;;;469471;253;1175;-57
2022/03/25 02:59:49;;;;;;;;;;;21.90;24.90;;;;;;469487;253;1099;-56
2022/03/25 03:01:51;;;;;;;;;;;21.90;25.00;;;;;;469406;253;1226;-56
2022/03/25 03:03:53;;;;;;;;;;;21.90;25.00;;;;;;469553;253;1122;-56
2022/03/25 03:05:53;;;;;;;;;;;21.90;25.00;;;;;;469448;253;2174;-56
2022/03/25 03:07:55;;;;;;;;;;;21.90;25.00;;;;;;469635;253;1074;-56
2022/03/25 03:09:57;;;;;;;;;;;21.90;24.90;;;;;;469591;253;1078;-56
2022/03/25 03:11:58;;;;;;;;;;;21.90;25.00;;;;;;469281;253;1037;-56
2022/03/25 03:13:59;;;;;;;;;;;21.80;25.00;;;;;;469245;253;2207;-57
2022/03/25 03:16:01;;;;;;;;;;;21.70;25.10;;;;;;469538;253;1071;-56
2022/03/25 03:18:02;;;;;;;;;;;21.70;25.10;;;;;;469196;253;1252;-57
2022/03/25 03:20:04;;;;;;;;;;;21.70;25.10;;;;;;469517;253;1224;-57
2022/03/25 03:22:05;;;;;;;;;;;21.70;25.10;;;;;;469225;253;1090;-56
2022/03/25 03:24:08;;;;;;;;;;;21.80;25.00;;;;;;469457;253;1068;-56
2022/03/25 03:26:08;;;;;;;;;;;21.90;25.00;;;;;;469224;253;1462;-58
2022/03/25 03:28:09;;;;;;;;;;;21.70;25.00;;;;;;469475;253;1158;-57
2022/03/25 03:30:11;;;;;;;;;;;21.80;25.00;;;;;;469481;253;984;-56
2022/03/25 03:32:11;;;;;;;;;;;21.80;25.00;;;;;;469593;253;1065;-56
2022/03/25 03:34:13;;;;;;;;;;;21.70;25.00;;;;;;469303;253;2188;-55
2022/03/25 03:36:14;;;;;;;;;;;21.60;25.10;;;;;;469418;253;1007;-56
2022/03/25 03:38:16;;;;;;;;;;;21.60;25.20;;;;;;469279;253;1065;-57
2022/03/25 03:40:17;;;;;;;;;;;21.50;25.20;;;;;;469254;253;959;-57
2022/03/25 03:42:19;;;;;;;;;;;21.60;25.10;;;;;;469361;253;1049;-56
2022/03/25 03:44:20;;;;;;;;;;;21.70;25.10;;;;;;469272;253;1182;-56
2022/03/25 03:46:21;;;;;;;;;;;21.80;25.00;;;;;;469297;253;1344;-56
2022/03/25 03:48:22;;;;;;;;;;;21.60;25.00;;;;;;469241;253;1056;-56
2022/03/25 03:50:24;;;;;;;;;;;21.60;25.10;;;;;;469363;253;1579;-56
2022/03/25 03:52:26;;;;;;;;;;;21.60;25.20;;;;;;469205;253;1192;-56
2022/03/25 03:54:27;;;;;;;;;;;21.70;25.10;;;;;;469197;253;2197;-56
2022/03/25 03:56:28;;;;;;;;;;;21.70;25.00;;;;;;469640;253;983;-56
2022/03/25 03:58:29;;;;;;;;;;;21.80;25.00;;;;;;469442;253;1202;-56
2022/03/25 04:00:32;;;;;;;;;;;21.60;25.10;;;;;;469246;253;1005;-56
2022/03/25 04:02:32;;;;;;;;;;;21.80;24.90;;;;;;469232;253;1290;-57
2022/03/25 04:04:33;;;;;;;;;;;21.60;25.10;;;;;;469270;253;991;-57
2022/03/25 04:06:35;;;;;;;;;;;21.70;24.90;;;;;;469591;253;1071;-56
2022/03/25 04:08:36;;;;;;;;;;;21.80;24.90;;;;;;469455;253;1111;-57
2022/03/25 04:10:37;;;;;;;;;;;21.70;25.00;;;;;;469249;253;1062;-56
2022/03/25 04:12:39;;;;;;;;;;;21.80;24.90;;;;;;469181;253;1060;-56
2022/03/25 04:14:40;;;;;;;;;;;21.70;25.00;;;;;;469214;253;2171;-57
2022/03/25 04:16:41;;;;;;;;;;;21.70;25.00;;;;;;469242;253;1150;-57
2022/03/25 04:18:43;;;;;;;;;;;21.70;25.00;;;;;;469634;253;1072;-56
2022/03/25 04:20:44;;;;;;;;;;;21.70;25.00;;;;;;469528;253;1039;-56
2022/03/25 04:22:45;;;;;;;;;;;21.70;25.00;;;;;;469206;253;1101;-56
2022/03/25 04:24:47;;;;;;;;;;;21.70;25.00;;;;;;469441;253;1118;-56
2022/03/25 04:26:48;;;;;;;;;;;21.70;25.00;;;;;;469191;253;1040;-57
2022/03/25 04:28:49;;;;;;;;;;;21.70;25.00;;;;;;469455;253;1213;-56
2022/03/25 04:30:51;;;;;;;;;;;21.60;25.10;;;;;;469330;253;1041;-57
2022/03/25 04:32:52;;;;;;;;;;;21.60;25.10;;;;;;469258;253;1071;-56
2022/03/25 04:34:53;;;;;;;;;;;21.60;25.10;;;;;;469168;253;2200;-56
2022/03/25 04:36:54;;;;;;;;;;;21.60;25.10;;;;;;469077;253;1102;-57
2022/03/25 04:38:56;;;;;;;;;;;21.50;25.10;;;;;;469556;253;1052;-56
2022/03/25 04:40:58;;;;;;;;;;;21.40;25.20;;;;;;469175;253;1087;-58
2022/03/25 04:42:59;;;;;;;;;;;21.60;25.20;;;;;;469309;253;1036;-56
2022/03/25 04:45:00;;;;;;;;;;;21.60;25.10;;;;;;469243;253;1188;-57
2022/03/25 04:47:03;;;;;;;;;;;21.40;25.20;;;;;;469343;253;1005;-56
2022/03/25 04:49:06;;;;;;;;;;;21.40;25.30;;;;;;469241;253;1464;-57
2022/03/25 04:51:05;;;;;;;;;;;21.50;25.20;;;;;;469273;253;1791;-56
2022/03/25 04:53:05;;;;;;;;;;;21.40;25.20;;;;;;469196;253;1075;-56
2022/03/25 04:55:07;;;;;;;;;;;21.40;25.20;;;;;;469396;253;2140;-56
2022/03/25 04:57:08;;;;;;;;;;;21.40;25.20;;;;;;469357;253;1155;-56
2022/03/25 04:59:11;;;;;;;;;;;21.40;25.20;;;;;;469251;253;1229;-56
2022/03/25 05:01:11;;;;;;;;;;;21.40;25.30;;;;;;469598;253;1391;-56
2022/03/25 05:03:12;;;;;;;;;;;21.50;25.20;;;;;;469314;253;1016;-57
2022/03/25 05:05:14;;;;;;;;;;;21.40;25.20;;;;;;469233;253;1060;-56
2022/03/25 05:07:15;;;;;;;;;;;21.50;25.20;;;;;;469602;253;1082;-57
2022/03/25 05:09:17;;;;;;;;;;;21.30;25.20;;;;;;469635;253;1109;-57
2022/03/25 05:11:18;;;;;;;;;;;21.40;25.30;;;;;;469622;253;2137;-57
2022/03/25 05:13:19;;;;;;;;;;;21.30;25.30;;;;;;469646;253;1003;-57
2022/03/25 05:15:20;;;;;;;;;;;21.30;25.30;;;;;;469242;253;2156;-57
2022/03/25 05:17:22;;;;;;;;;;;21.30;25.30;;;;;;469396;253;1174;-57
2022/03/25 05:19:23;;;;;;;;;;;21.40;25.20;;;;;;469186;253;1084;-57
2022/03/25 05:21:24;;;;;;;;;;;21.40;25.20;;;;;;469520;253;1097;-57
2022/03/25 05:23:26;;;;;;;;;;;21.50;25.10;;;;;;469114;253;1092;-56
2022/03/25 05:25:27;;;;;;;;;;;21.50;25.10;;;;;;469262;253;1019;-57
2022/03/25 05:27:28;;;;;;;;;;;21.50;25.10;;;;;;469529;253;1077;-56
2022/03/25 05:29:29;;;;;;;;;;;21.70;24.90;;;;;;469344;253;1135;-56
2022/03/25 05:31:31;;;;;;;;;;;21.80;24.90;;;;;;469464;253;1101;-56
2022/03/25 05:33:32;;;;;;;;;;;21.90;24.70;;;;;;469105;253;1082;-56
2022/03/25 05:35:34;;;;;;;;;;;22.00;24.70;;;;;;469507;253;2132;-57
2022/03/25 05:37:35;;;;;;;;;;;22.10;24.70;;;;;;468996;253;1059;-57
2022/03/25 05:39:36;;;;;;;;;;;22.20;24.50;;;;;;469024;253;1032;-56
2022/03/25 05:41:38;;;;;;;;;;;22.40;24.40;;;;;;468919;253;1082;-56
2022/03/25 05:43:39;;;;;;;;;;;22.60;24.30;;;;;;469030;253;1382;-57
2022/03/25 05:45:40;;;;;;;;;;;22.70;24.20;;;;;;469048;253;1237;-57
2022/03/25 05:47:41;;;;;;;;;;;22.70;24.20;;;;;;468981;253;1022;-56
2022/03/25 05:49:43;;;;;;;;;;;22.70;24.30;;;;;;468987;253;1030;-57
2022/03/25 05:51:44;;;;;;;;;;;22.70;24.20;;;;;;469110;253;1107;-57
2022/03/25 05:53:45;;;;;;;;;;;22.70;24.20;;;;;;469074;253;1054;-57
2022/03/25 05:55:47;;;;;;;;;;;22.70;24.20;;;;;;469331;253;2125;-57
2022/03/25 05:57:48;;;;;;;;;;;22.50;24.40;;;;;;469350;253;1076;-56
2022/03/25 05:59:50;;;;;;;;;;;22.40;24.40;;;;;;469176;253;1223;-56
2022/03/25 06:01:51;;;;;;;;;;;22.20;24.60;;;;;;469209;253;1071;-57
2022/03/25 06:03:52;;;;;;;;;;;22.10;24.70;;;;;;469444;253;1139;-56
2022/03/25 06:05:53;;;;;;;;;;;22.00;24.90;;;;;;469467;253;1064;-56
2022/03/25 06:07:55;;;;;;;;;;;22.00;24.90;;;;;;468975;253;1067;-56
2022/03/25 06:09:56;;;;;;;;;;;21.90;25.00;;;;;;469275;253;1548;-56
2022/03/25 06:11:57;;;;;;;;;;;21.80;25.00;;;;;;468788;253;1245;-56
2022/03/25 06:13:59;;;;;;;;;;;21.80;25.00;;;;;;469093;253;1030;-56
2022/03/25 06:16:00;;;;;;;;;;;21.70;25.10;;;;;;469099;253;2208;-56
2022/03/25 06:18:01;;;;;;;;;;;21.60;25.20;;;;;;469470;253;1030;-56
2022/03/25 06:20:03;;;;;;;;;;;21.60;25.20;;;;;;469424;253;1115;-57
2022/03/25 06:22:04;;;;;;;;;;;21.50;25.20;;;;;;468935;253;1091;-56
2022/03/25 06:24:05;;;;;;;;;;;21.60;25.30;;;;;;469399;253;1115;-56
2022/03/25 06:26:07;;;;;;;;;;;21.60;25.30;;;;;;469350;253;1062;-56
2022/03/25 06:28:08;;;;;;;;;;;21.60;25.30;;;;;;469371;253;1168;-56
2022/03/25 06:30:09;;;;;;;;;;;21.60;25.40;;;;;;469256;253;1304;-56
2022/03/25 06:32:11;;;;;;;;;;;21.40;25.50;;;;;;469247;253;1056;-56
2022/03/25 06:34:12;;;;;;;;;;;21.40;25.50;;;;;;469210;253;1113;-56
2022/03/25 06:36:13;;;;;;;;;;;21.40;25.60;;;;;;469069;253;2136;-56
2022/03/25 06:38:15;;;;;;;;;;;21.30;25.70;;;;;;469282;253;980;-56
2022/03/25 06:40:16;;;;;;;;;;;21.30;25.70;;;;;;468965;253;1024;-56
2022/03/25 06:42:17;;;;;;;;;;;21.20;25.90;;;;;;468880;253;1023;-56
2022/03/25 06:44:19;;;;;;;;;;;21.30;25.90;;;;;;468938;253;1158;-56
2022/03/25 06:46:20;;;;;;;;;;;21.30;25.90;;;;;;468886;253;1215;-56
2022/03/25 06:48:21;;;;;;;;;;;21.30;26.00;;;;;;469319;253;1204;-56
2022/03/25 06:50:24;;;;;;;;;;;21.30;26.10;;;;;;469218;253;1082;-56
2022/03/25 06:52:24;;;;;;;;;;;21.40;26.00;;;;;;468976;253;1266;-56
2022/03/25 06:54:25;;;;;;;;;;;21.30;26.20;;;;;;468971;253;1138;-57
2022/03/25 06:56:27;;;;;;;;;;;21.30;26.10;;;;;;468807;253;2203;-57
2022/03/25 06:58:28;;;;;;;;;;;21.40;26.20;;;;;;469405;253;1099;-56
2022/03/25 07:00:29;;;;;;;;;;;21.50;26.20;;;;;;468924;253;1492;-56
2022/03/25 07:02:30;;;;;;;;;;;21.50;26.10;;;;;;469107;253;1050;-56
2022/03/25 07:04:32;;;;;;;;;;;21.50;26.10;;;;;;468915;253;1073;-56
2022/03/25 07:06:33;;;;;;;;;;;21.50;26.20;;;;;;468997;253;1222;-56
2022/03/25 07:08:34;;;;;;;;;;;21.50;26.10;;;;;;468759;253;1095;-56
2022/03/25 07:10:36;;;;;;;;;;;21.50;26.10;;;;;;469187;253;1136;-57
2022/03/25 07:12:37;;;;;;;;;;;21.50;26.10;;;;;;468997;253;1063;-56
2022/03/25 07:14:38;;;;;;;;;;;21.60;26.10;;;;;;469205;253;1039;-56
2022/03/25 07:16:42;;;;;;;;;;;21.50;26.20;;;;;;468830;253;2199;-57
2022/03/25 07:18:42;;;;;;;;;;;21.40;26.30;;;;;;468729;253;1911;-56
2022/03/25 07:20:43;;;;;;;;;;;21.50;26.20;;;;;;468634;253;1086;-57
2022/03/25 07:22:44;;;;;;;;;;;21.50;26.20;;;;;;469215;253;1084;-56
2022/03/25 07:24:45;;;;;;;;;;;21.50;26.30;;;;;;468938;253;1075;-57
2022/03/25 07:26:47;;;;;;;;;;;21.40;26.40;;;;;;468817;253;1094;-56
2022/03/25 07:28:48;;;;;;;;;;;21.30;26.50;;;;;;468629;253;1064;-57
2022/03/25 07:30:49;;;;;;;;;;;21.40;26.50;;;;;;468607;253;1384;-56
2022/03/25 07:32:51;;;;;;;;;;;21.30;26.50;;;;;;468751;253;1288;-57
2022/03/25 07:34:52;;;;;;;;;;;21.30;26.50;;;;;;468749;253;1075;-56
2022/03/25 07:36:53;;;;;;;;;;;21.30;26.60;;;;;;468573;253;2199;-56
2022/03/25 07:38:55;;;;;;;;;;;21.30;26.60;;;;;;468638;253;1080;-56
2022/03/25 07:40:56;;;;;;;;;;;21.30;26.60;;;;;;468521;253;1105;-56
2022/03/25 07:42:58;;;;;;;;;;;21.40;26.40;;;;;;468691;253;1039;-57
2022/03/25 07:44:59;;;;;;;;;;;21.40;26.50;;;;;;468668;253;2218;-57
2022/03/25 07:47:00;;;;;;;;;;;21.40;26.50;;;;;;468768;253;1145;-56
2022/03/25 07:49:01;;;;;;;;;;;21.30;26.60;;;;;;468804;253;1060;-56
2022/03/25 07:51:03;;;;;;;;;;;21.30;26.50;;;;;;468636;253;1106;-57
2022/03/25 07:53:04;;;;;;;;;;;21.30;26.50;;;;;;468819;253;1079;-57
2022/03/25 07:55:05;;;;;;;;;;;21.30;26.50;;;;;;468691;253;1074;-56
2022/03/25 07:57:06;;;;;;;;;;;21.30;26.50;;;;;;468609;253;2199;-57
2022/03/25 07:59:08;;;;;;;;;;;21.30;26.50;;;;;;468624;253;1114;-56
2022/03/25 08:01:09;;;;;;;;;;;21.30;26.40;;;;;;468549;253;1194;-56
2022/03/25 08:03:11;;;;;;;;;;;21.40;26.50;;;;;;468541;253;1076;-56
2022/03/25 08:05:13;;;;;;;;;;;21.40;26.50;;;;;;468464;253;1215;-56
2022/03/25 08:07:13;;;;;;;;;;;21.40;26.50;;;;;;468538;253;2072;-56
2022/03/25 08:09:14;;;;;;;;;;;21.50;26.40;;;;;;468416;253;1071;-56
2022/03/25 08:11:17;;;;;;;;;;;21.60;26.40;;;;;;468593;253;1092;-56
2022/03/25 08:13:17;;;;;;;;;;;21.60;26.30;;;;;;468479;253;2482;-56
2022/03/25 08:15:20;;;;;;;;;;;21.50;26.50;;;;;;468514;253;1153;-56
2022/03/25 08:17:21;;;;;;;;;;;21.60;26.40;;;;;;468567;253;2196;-56
2022/03/25 08:19:21;;;;;;;;;;;21.50;26.50;;;;;;468488;253;2048;-56
2022/03/25 08:21:23;;;;;;;;;;;21.50;26.50;;;;;;468457;253;1131;-56
2022/03/25 08:28:02;;;;;;;;;;;21.50;26.40;;;;;;468639;254;1063;-56
2022/03/25 08:30:04;;;;;;;;;;;21.60;26.50;;;;;;468613;253;1109;-56
2022/03/25 08:32:05;;;;;;;;;;;21.50;26.50;;;;;;468570;253;1194;-56
2022/03/25 08:34:08;;;;;;;;;;;21.50;26.60;;;;;;468498;253;1150;-56
2022/03/25 08:36:08;;;;;;;;;;;21.50;26.50;;;;;;468452;253;2183;-57
2022/03/25 08:38:09;;;;;;;;;;;21.60;26.40;;;;;;468420;253;1132;-56
2022/03/25 08:40:11;;;;;;;;;;;21.60;26.50;;;;;;468588;253;1177;-56
2022/03/25 08:42:13;;;;;;;;;;;21.50;26.60;;;;;;468549;253;1067;-56
2022/03/25 08:44:14;;;;;;;;;;;21.60;26.50;;;;;;468287;253;2140;-56
2022/03/25 08:46:15;;;;;;;;;;;21.50;26.50;;;;;;468301;253;1315;-56
2022/03/25 08:48:16;;;;;;;;;;;21.50;26.60;;;;;;468434;253;1038;-56
2022/03/25 08:50:17;;;;;;;;;;;21.60;26.50;;;;;;468316;253;1108;-56
2022/03/25 08:52:20;;;;;;;;;;;21.60;26.40;;;;;;468505;253;1105;-57
2022/03/25 08:54:20;;;;;;;;;;;21.50;26.50;;;;;;468604;253;2091;-56
2022/03/25 08:56:24;;;;;;;;;;;21.50;26.60;;;;;;468539;253;2204;-57
2022/03/25 08:58:24;;;;;;;;;;;21.40;26.70;;;;;;468647;253;1676;-56
2022/03/25 09:00:25;;;;;;;;;;;21.40;26.80;;;;;;468730;253;1214;-56
2022/03/25 09:02:26;;;;;;;;;;;21.40;26.70;;;;;;468639;253;1218;-56
2022/03/25 09:04:30;;;;;;;;;;;21.30;26.80;;;;;;468693;253;1167;-56
2022/03/25 09:06:29;;;;;;;;;;;21.20;26.90;;;;;;468470;253;1246;-56
2022/03/25 09:08:30;;;;;;;;;;;21.20;27.00;;;;;;468428;253;1096;-56
2022/03/25 09:10:31;;;;;;;;;;;21.40;26.80;;;;;;468355;253;1193;-57
2022/03/25 09:12:33;;;;;;;;;;;21.30;26.80;;;;;;468598;253;1104;-56
2022/03/25 09:14:34;;;;;;;;;;;21.40;26.70;;;;;;468617;253;1057;-56
2022/03/25 09:16:36;;;;;;;;;;;21.20;27.00;;;;;;468548;253;2227;-56
2022/03/25 09:18:37;;;;;;;;;;;21.10;27.00;;;;;;468420;253;1349;-56
2022/03/25 09:20:38;;;;;;;;;;;21.20;27.00;;;;;;468576;253;1126;-56
2022/03/25 09:22:39;;;;;;;;;;;21.20;27.00;;;;;;468521;253;1360;-57
2022/03/25 09:24:41;;;;;;;;;;;21.30;27.00;;;;;;468819;253;1189;-56
2022/03/25 09:26:42;;;;;;;;;;;21.20;27.00;;;;;;468454;253;1085;-56
2022/03/25 09:28:43;;;;;;;;;;;21.30;26.90;;;;;;468593;253;1090;-56
2022/03/25 09:30:45;;;;;;;;;;;21.40;26.70;;;;;;468519;253;1105;-57
2022/03/25 09:32:46;;;;;;;;;;;21.40;26.70;;;;;;468511;253;1250;-56
2022/03/25 09:37:06;;;;;;;;;;;21.40;26.60;;;;;;468578;254;2124;-56
2022/03/25 09:39:08;;;;;;;;;;;21.40;26.70;;;;;;468518;253;1055;-56
2022/03/25 09:41:09;;;;;;;;;;;21.40;26.70;;;;;;468559;253;1173;-56
2022/03/25 09:43:12;;;;;;;;;;;21.40;26.70;;;;;;468460;253;1151;-56
2022/03/25 09:45:13;;;;;;;;;;;21.40;26.60;;;;;;468433;253;1103;-56
2022/03/25 09:47:16;;;;;;;;;;;21.50;26.50;;;;;;468417;253;1279;-57
2022/03/25 09:49:16;;;;;;;;;;;21.50;26.50;;;;;;468644;253;2039;-56
2022/03/25 09:51:17;;;;;;;;;;;21.50;26.60;;;;;;468346;253;1123;-56
2022/03/25 09:53:19;;;;;;;;;;;21.40;26.60;;;;;;468563;253;1176;-56
2022/03/25 09:55:20;;;;;;;;;;;21.60;26.40;;;;;;468173;253;1129;-57
2022/03/25 09:57:21;;;;;;;;;;;21.60;26.50;;;;;;468235;253;2243;-56
2022/03/25 09:59:23;;;;;;;;;;;21.60;26.60;;;;;;468155;253;1084;-56
2022/03/25 10:01:24;;;;;;;;;;;21.60;26.60;;;;;;468189;253;1083;-56
2022/03/25 10:03:26;;;;;;;;;;;21.60;26.70;;;;;;468474;253;1218;-57
2022/03/25 10:05:27;;;;;;;;;;;21.50;26.60;;;;;;468432;253;1138;-56
2022/03/25 10:07:30;;;;;;;;;;;21.60;26.60;;;;;;468390;253;1079;-57
2022/03/25 10:09:29;;;;;;;;;;;21.60;26.50;;;;;;468260;253;2139;-56
2022/03/25 10:11:31;;;;;;;;;;;21.70;26.40;;;;;;468173;253;1315;-56
2022/03/25 10:13:32;;;;;;;;;;;21.70;26.40;;;;;;468666;253;1228;-56
2022/03/25 10:15:33;;;;;;;;;;;21.80;26.40;;;;;;468540;253;1061;-57
2022/03/25 10:17:35;;;;;;;;;;;21.70;26.60;;;;;;468555;253;2212;-56
2022/03/25 10:19:36;;;;;;;;;;;21.60;26.70;;;;;;468564;253;1230;-56
2022/03/25 10:21:37;;;;;;;;;;;21.70;26.60;;;;;;468535;253;1111;-56
2022/03/25 10:23:39;;;;;;;;;;;21.60;26.70;;;;;;468478;253;1087;-56
2022/03/25 10:25:40;;;;;;;;;;;21.70;26.60;;;;;;468461;253;1100;-56
2022/03/25 10:27:41;;;;;;;;;;;21.60;26.70;;;;;;468522;253;1044;-56
2022/03/25 10:29:43;;;;;;;;;;;21.50;26.80;;;;;;468613;253;1091;-56
2022/03/25 10:31:44;;;;;;;;;;;21.60;26.70;;;;;;468534;253;1152;-56
2022/03/25 10:33:45;;;;;;;;;;;21.80;26.50;;;;;;468417;253;1190;-57
2022/03/25 10:35:46;;;;;;;;;;;21.70;26.60;;;;;;468419;253;1219;-56
2022/03/25 10:37:48;;;;;;;;;;;21.70;26.70;;;;;;468566;253;2200;-56
2022/03/25 10:39:49;;;;;;;;;;;21.80;26.60;;;;;;468553;253;1225;-57
2022/03/25 10:41:51;;;;;;;;;;;21.80;26.50;;;;;;468466;253;1100;-57
2022/03/25 10:43:52;;;;;;;;;;;21.90;26.50;;;;;;468480;253;1082;-61
2022/03/25 10:45:54;;;;;;;;;;;22.20;26.20;;;;;;468883;253;1087;-62
2022/03/25 10:47:55;;;;;;;;;;;22.50;26.00;;;;;;468628;253;1147;-57
2022/03/25 10:49:56;;;;;;;;;;;22.60;25.90;;;;;;468323;253;1183;-58
2022/03/25 10:52:00;;;;;;;;;;;22.70;25.80;;;;;;468624;253;1066;-58
2022/03/25 10:54:00;;;;;;;;;;;22.90;25.60;;;;;;468989;253;1211;-58
2022/03/25 10:56:02;;;;;;;;;;;22.90;25.50;;;;;;468875;253;768;-58
2022/03/25 10:58:03;;;;;;;;;;;23.10;25.50;;;;;;468474;253;2204;-58
2022/03/25 11:00:05;;;;;;;;;;;22.90;25.60;;;;;;468404;253;1034;-60
2022/03/25 11:02:06;;;;;;;;;;;22.90;25.70;;;;;;468317;253;2270;-58
2022/03/25 11:04:07;;;;;;;;;;;23.00;25.60;;;;;;468440;253;1956;-58
2022/03/25 11:06:08;;;;;;;;;;;22.90;25.70;;;;;;468380;253;1166;-58
2022/03/25 11:08:09;;;;;;;;;;;22.80;25.90;;;;;;468603;253;1064;-58
2022/03/25 11:10:12;;;;;;;;;;;22.50;26.10;;;;;;468796;253;1058;-58
2022/03/25 11:12:13;;;;;;;;;;;22.50;26.00;;;;;;468573;253;1079;-58
2022/03/25 11:14:15;;;;;;;;;;;22.30;26.20;;;;;;468510;253;1068;-58
2022/03/25 11:16:17;;;;;;;;;;;22.20;26.40;;;;;;468503;253;1091;-58
2022/03/25 11:18:18;;;;;;;;;;;22.20;26.30;;;;;;468597;253;2129;-58
2022/03/25 11:20:20;;;;;;;;;;;22.20;26.30;;;;;;468458;253;1071;-58
2022/03/25 11:22:21;;;;;;;;;;;22.10;26.40;;;;;;468488;253;1057;-58
2022/03/25 11:24:23;;;;;;;;;;;22.00;26.60;;;;;;468616;253;1029;-58
2022/03/25 11:26:24;;;;;;;;;;;22.10;26.40;;;;;;468914;253;1550;-58
2022/03/25 11:28:25;;;;;;;;;;;22.00;26.40;;;;;;468647;253;1087;-58
2022/03/25 11:30:27;;;;;;;;;;;21.90;26.40;;;;;;468526;253;1619;-57
2022/03/25 11:32:28;;;;;;;;;;;22.00;26.40;;;;;;468471;253;1175;-58
2022/03/25 11:34:29;;;;;;;;;;;21.90;26.40;;;;;;468354;252;1246;-58
2022/03/25 11:36:31;;;;;;;;;;;22.10;26.30;;;;;;468357;253;1035;-58
2022/03/25 11:38:32;;;;;;;;;;;21.90;26.40;;;;;;468631;253;2196;-58
2022/03/25 11:40:33;;;;;;;;;;;21.90;26.40;;;;;;468557;253;1165;-57
2022/03/25 11:42:35;;;;;;;;;;;22.00;26.30;;;;;;468818;253;1156;-58
2022/03/25 11:44:36;;;;;;;;;;;21.90;26.40;;;;;;468576;253;1063;-58
2022/03/25 11:46:37;;;;;;;;;;;21.90;26.40;;;;;;468607;253;1061;-58
2022/03/25 11:48:39;;;;;;;;;;;21.90;26.50;;;;;;468651;253;1211;-58
2022/03/25 11:50:40;;;;;;;;;;;21.90;26.40;;;;;;468553;253;1265;-58
2022/03/25 11:52:41;;;;;;;;;;;21.90;26.40;;;;;;468511;253;1119;-58
2022/03/25 11:54:43;;;;;;;;;;;21.60;26.60;;;;;;468532;253;1117;-58
2022/03/25 11:56:44;;;;;;;;;;;21.90;26.30;;;;;;468444;253;2180;-58
2022/03/25 11:58:45;;;;;;;;;;;21.90;26.30;;;;;;468665;253;1089;-58
2022/03/25 12:00:48;;;;;;;;;;;21.90;26.40;;;;;;468639;253;1185;-58
2022/03/25 12:02:48;;;;;;;;;;;21.80;26.50;;;;;;468619;253;2027;-58
2022/03/25 12:04:49;;;;;;;;;;;21.70;26.50;;;;;;468726;253;1187;-58